Time;durP1;ratioP1;P1;durP2;ratioP2;P2;SDS_P1;SDS_P2;PMS_P1;PMS_P2;Temp;Humidity;BMP_temperature;BMP_pressure;BME280_temperature;BME280_humidity;BME280_pressure;Samples;Min_cycle;Max_cycle;Signal;HPM_P1;HPM_P2
2020/12/30 00:01:30;;;;;;;2.95;1.27;;;20.90;41.70;;;;;;5026451;28;20038;-42
2020/12/30 00:03:55;;;;;;;2.08;1.13;;;20.90;41.10;;;;;;5041340;28;20033;-42
2020/12/30 00:06:21;;;;;;;1.48;1.02;;;20.90;41.10;;;;;;5031438;28;20029;-42
2020/12/30 00:08:47;;;;;;;1.60;0.88;;;20.90;41.20;;;;;;5033792;28;20017;-42
2020/12/30 00:11:13;;;;;;;2.33;1.23;;;20.90;41.10;;;;;;5033748;28;20025;-42
2020/12/30 00:13:38;;;;;;;2.35;1.05;;;20.80;41.10;;;;;;5029155;28;20025;-38
2020/12/30 00:16:04;;;;;;;2.05;1.05;;;20.80;41.20;;;;;;5040821;28;20689;-41
2020/12/30 00:18:30;;;;;;;1.75;1.25;;;20.80;41.20;;;;;;5029295;28;20126;-42
2020/12/30 00:20:56;;;;;;;1.63;1.15;;;20.80;41.20;;;;;;5026916;28;20032;-41
2020/12/30 00:23:25;;;;;;;1.50;1.10;;;20.80;41.20;;;;;;5027088;28;20029;-42
2020/12/30 00:25:51;;;;;;;1.77;1.02;;;20.70;41.20;;;;;;5038322;28;20032;-42
2020/12/30 00:28:17;;;;;;;1.63;0.75;;;20.70;41.20;;;;;;5040487;28;20096;-42
2020/12/30 00:30:43;;;;;;;1.50;1.00;;;20.70;41.20;;;;;;5036456;28;20132;-42
2020/12/30 00:33:09;;;;;;;2.28;1.30;;;20.70;41.20;;;;;;5030506;28;20141;-42
2020/12/30 00:35:35;;;;;;;2.53;1.23;;;20.70;41.20;;;;;;5030402;28;20531;-43
2020/12/30 00:38:00;;;;;;;1.60;0.73;;;20.60;41.20;;;;;;5031200;28;20053;-39
2020/12/30 00:40:26;;;;;;;1.45;0.98;;;20.60;41.30;;;;;;5033920;28;20021;-41
2020/12/30 00:42:51;;;;;;;2.33;1.13;;;20.60;41.20;;;;;;5037145;28;20037;-42
2020/12/30 00:45:17;;;;;;;1.27;0.73;;;20.60;41.20;;;;;;5043109;28;20440;-41
2020/12/30 00:47:42;;;;;;;1.95;1.08;;;20.50;41.70;;;;;;5030676;28;20030;-37
2020/12/30 00:50:08;;;;;;;2.47;1.05;;;20.50;41.80;;;;;;5035226;28;20529;-40
2020/12/30 00:52:34;;;;;;;1.70;0.73;;;20.50;41.30;;;;;;5030748;28;20036;-41
2020/12/30 00:55:00;;;;;;;1.75;0.90;;;20.50;41.30;;;;;;5016623;28;20132;-41
2020/12/30 00:57:26;;;;;;;1.50;0.68;;;20.40;41.30;;;;;;5038656;28;20108;-42
2020/12/30 00:59:53;;;;;;;1.63;1.02;;;20.40;41.30;;;;;;5031775;28;20534;-42
2020/12/30 01:02:18;;;;;;;2.15;1.13;;;20.40;41.30;;;;;;5030863;28;20112;-42
2020/12/30 01:04:44;;;;;;;1.73;0.50;;;20.40;41.30;;;;;;5034223;28;20109;-42
2020/12/30 01:07:11;;;;;;;3.35;0.90;;;20.40;41.30;;;;;;5046977;28;20036;-42
2020/12/30 01:09:36;;;;;;;2.10;1.05;;;20.40;41.30;;;;;;5031450;28;20034;-38
2020/12/30 01:12:04;;;;;;;1.67;0.60;;;20.40;41.30;;;;;;5040714;28;20036;-41
2020/12/30 01:14:30;;;;;;;1.65;0.70;;;20.30;41.30;;;;;;5047660;28;20051;-42
2020/12/30 01:16:56;;;;;;;1.08;0.85;;;20.30;41.30;;;;;;5031821;28;20454;-40
2020/12/30 01:19:22;;;;;;;1.67;0.85;;;20.30;41.30;;;;;;5032209;28;20080;-42
2020/12/30 01:21:48;;;;;;;2.05;0.68;;;20.30;41.40;;;;;;5035623;28;20037;-39
2020/12/30 01:24:14;;;;;;;1.38;0.90;;;20.30;41.40;;;;;;5030891;28;20041;-41
2020/12/30 01:26:41;;;;;;;1.70;1.00;;;20.20;41.40;;;;;;5030746;28;20035;-41
2020/12/30 01:29:07;;;;;;;1.27;0.88;;;20.20;41.40;;;;;;5032262;28;20037;-43
2020/12/30 01:31:34;;;;;;;1.92;0.98;;;20.20;41.50;;;;;;5032755;28;20048;-41
2020/12/30 01:34:01;;;;;;;1.15;0.63;;;20.20;41.50;;;;;;5028626;28;20041;-41
2020/12/30 01:36:27;;;;;;;1.42;0.90;;;20.20;41.50;;;;;;5031020;28;20048;-41
2020/12/30 01:38:53;;;;;;;1.13;0.70;;;20.20;41.50;;;;;;5030775;28;20041;-42
2020/12/30 01:41:19;;;;;;;1.52;0.82;;;20.10;41.50;;;;;;5029765;28;20037;-41
2020/12/30 01:44:06;;;;;;;2.10;0.85;;;20.10;41.50;;;;;;5014443;28;20038;-42
2020/12/30 01:46:41;;;;;;;2.38;0.82;;;20.10;41.50;;;;;;5029956;28;20521;-41
2020/12/30 01:49:27;;;;;;;1.40;0.80;;;20.10;41.50;;;;;;5032197;28;20031;-42
2020/12/30 01:51:53;;;;;;;1.95;0.90;;;20.10;41.60;;;;;;5029162;28;20056;-42
2020/12/30 01:54:20;;;;;;;1.70;0.68;;;20.10;41.50;;;;;;5029689;28;20379;-42
2020/12/30 01:56:46;;;;;;;1.67;0.70;;;20.10;41.60;;;;;;5028731;28;20041;-40
2020/12/30 01:59:15;;;;;;;0.90;0.60;;;20.00;41.50;;;;;;5034548;28;20041;-42
2020/12/30 02:01:53;;;;;;;1.30;0.60;;;20.00;41.60;;;;;;5030110;28;20071;-42
2020/12/30 02:04:24;;;;;;;1.30;0.60;;;20.00;41.60;;;;;;5028469;28;20481;-42
2020/12/30 02:06:50;;;;;;;1.73;0.93;;;20.00;41.60;;;;;;5033302;28;20049;-40
2020/12/30 02:09:16;;;;;;;1.85;1.02;;;20.00;41.60;;;;;;5029852;28;20053;-42
2020/12/30 02:11:41;;;;;;;0.95;0.50;;;20.00;41.60;;;;;;5029575;28;20049;-42
2020/12/30 02:14:13;;;;;;;1.10;0.60;;;20.00;41.60;;;;;;5033066;28;20052;-42
2020/12/30 02:16:48;;;;;;;2.65;1.20;;;20.00;41.60;;;;;;5032935;28;20037;-41
2020/12/30 02:19:14;;;;;;;2.58;0.77;;;20.00;41.60;;;;;;5032818;28;20087;-42
2020/12/30 02:21:40;;;;;;;1.85;0.65;;;20.00;41.50;;;;;;5034466;28;20033;-41
2020/12/30 02:24:08;;;;;;;1.90;0.60;;;20.00;41.60;;;;;;5033160;28;20509;-39
2020/12/30 02:26:34;;;;;;;1.02;0.70;;;20.00;41.60;;;;;;5036126;28;20040;-41
2020/12/30 02:29:00;;;;;;;0.95;0.60;;;20.00;41.60;;;;;;5041788;28;20064;-43
2020/12/30 02:31:27;;;;;;;1.98;0.80;;;20.00;41.60;;;;;;5040900;28;20025;-42
2020/12/30 02:33:53;;;;;;;1.10;0.52;;;20.00;41.60;;;;;;5033203;28;20063;-39
2020/12/30 02:36:18;;;;;;;2.15;0.50;;;19.90;41.60;;;;;;5030691;28;20033;-42
2020/12/30 02:38:44;;;;;;;0.93;0.52;;;19.90;41.60;;;;;;5032580;28;20099;-43
2020/12/30 02:41:09;;;;;;;1.08;0.60;;;19.90;41.50;;;;;;5037299;28;20037;-41
2020/12/30 02:43:35;;;;;;;1.05;0.68;;;19.90;41.50;;;;;;5028355;28;20033;-41
2020/12/30 02:46:01;;;;;;;0.88;0.38;;;19.90;41.50;;;;;;5038066;28;20094;-40
2020/12/30 02:48:27;;;;;;;1.13;0.45;;;19.80;41.50;;;;;;5037250;28;20021;-40
2020/12/30 02:50:53;;;;;;;1.15;0.52;;;19.80;41.60;;;;;;5025540;28;20513;-39
2020/12/30 02:53:19;;;;;;;0.93;0.40;;;19.80;41.60;;;;;;5029143;28;20478;-42
2020/12/30 02:55:45;;;;;;;1.23;0.63;;;19.80;41.60;;;;;;5031752;28;20045;-43
2020/12/30 02:58:10;;;;;;;0.77;0.47;;;19.80;41.60;;;;;;5031865;28;20414;-43
2020/12/30 03:00:36;;;;;;;1.00;0.40;;;19.80;41.70;;;;;;5028927;28;20502;-43
2020/12/30 03:03:02;;;;;;;1.05;0.47;;;19.80;41.60;;;;;;5011696;28;20037;-42
2020/12/30 03:05:27;;;;;;;1.13;0.40;;;19.80;41.60;;;;;;5039415;28;20044;-42
2020/12/30 03:07:53;;;;;;;1.52;0.70;;;19.80;41.60;;;;;;5028005;28;20029;-39
2020/12/30 03:10:19;;;;;;;1.30;0.73;;;19.80;41.70;;;;;;5028644;28;20033;-41
2020/12/30 03:12:44;;;;;;;0.77;0.47;;;19.70;41.60;;;;;;5031658;28;20104;-40
2020/12/30 03:15:11;;;;;;;1.10;0.63;;;19.70;41.70;;;;;;5031693;28;20038;-41
2020/12/30 03:17:36;;;;;;;0.80;0.40;;;19.70;41.60;;;;;;5059822;22;20087;-43
2020/12/30 03:20:02;;;;;;;1.00;0.60;;;19.70;41.60;;;;;;5045877;28;20537;-41
2020/12/30 03:22:28;;;;;;;0.93;0.60;;;19.70;41.70;;;;;;5050429;28;20035;-44
2020/12/30 03:24:54;;;;;;;2.45;0.63;;;19.70;41.70;;;;;;5028696;28;20037;-41
2020/12/30 03:27:19;;;;;;;1.25;0.50;;;19.70;41.70;;;;;;5045825;28;20036;-43
2020/12/30 03:29:45;;;;;;;1.40;0.73;;;19.70;41.60;;;;;;5010671;28;20040;-40
2020/12/30 03:32:10;;;;;;;1.33;0.60;;;19.80;41.50;;;;;;5015738;28;20026;-42
2020/12/30 03:34:36;;;;;;;1.40;0.60;;;19.70;41.40;;;;;;5026740;28;20038;-43
2020/12/30 03:37:02;;;;;;;1.55;0.50;;;19.70;41.50;;;;;;5040841;28;20049;-44
2020/12/30 03:39:28;;;;;;;1.13;0.40;;;19.70;41.50;;;;;;5012949;28;20041;-45
2020/12/30 03:41:54;;;;;;;1.00;0.50;;;19.80;41.50;;;;;;5025189;28;20395;-42
2020/12/30 03:44:19;;;;;;;1.00;0.52;;;19.70;41.40;;;;;;5018119;28;20344;-40
2020/12/30 03:46:45;;;;;;;0.85;0.45;;;19.70;41.50;;;;;;5023217;28;20613;-44
2020/12/30 03:49:10;;;;;;;1.88;0.40;;;19.70;41.60;;;;;;5031251;28;20025;-42
2020/12/30 03:51:36;;;;;;;0.70;0.30;;;19.60;41.50;;;;;;5031470;28;20037;-41
2020/12/30 03:54:02;;;;;;;1.33;0.40;;;19.60;41.60;;;;;;4991248;28;20065;-41
2020/12/30 03:56:27;;;;;;;1.00;0.50;;;19.60;41.70;;;;;;5024003;28;20390;-41
2020/12/30 03:58:53;;;;;;;0.90;0.40;;;19.60;41.80;;;;;;5026347;28;20108;-44
2020/12/30 04:01:18;;;;;;;1.00;0.38;;;19.50;41.70;;;;;;5040732;28;20116;-44
2020/12/30 04:03:44;;;;;;;0.77;0.40;;;19.50;41.80;;;;;;5003347;28;20534;-38
2020/12/30 04:06:09;;;;;;;0.90;0.40;;;19.50;41.80;;;;;;5022071;28;20021;-42
2020/12/30 04:08:35;;;;;;;0.82;0.45;;;19.50;41.80;;;;;;5022410;28;20095;-45
2020/12/30 04:11:00;;;;;;;0.88;0.35;;;19.50;42.30;;;;;;5020628;28;20033;-46
2020/12/30 04:13:26;;;;;;;0.80;0.40;;;19.50;41.80;;;;;;5041820;28;20043;-42
2020/12/30 04:15:51;;;;;;;0.95;0.60;;;19.50;41.70;;;;;;5043789;28;20122;-41
2020/12/30 04:18:17;;;;;;;2.55;0.55;;;19.50;41.70;;;;;;5022924;28;20045;-45
2020/12/30 04:20:42;;;;;;;1.45;0.57;;;19.50;41.70;;;;;;5021312;28;20041;-45
2020/12/30 04:23:08;;;;;;;0.88;0.40;;;19.40;41.70;;;;;;5037751;28;20047;-43
2020/12/30 04:25:34;;;;;;;0.88;0.40;;;19.50;41.80;;;;;;5025803;28;20383;-44
2020/12/30 04:27:59;;;;;;;1.25;0.50;;;19.50;41.80;;;;;;5040631;28;20036;-41
2020/12/30 04:30:25;;;;;;;0.73;0.30;;;19.40;41.70;;;;;;5020058;28;20445;-40
2020/12/30 04:32:50;;;;;;;1.83;0.30;;;19.40;41.80;;;;;;5029559;28;20502;-41
2020/12/30 04:35:16;;;;;;;1.20;0.50;;;19.40;41.80;;;;;;5012705;28;20037;-43
2020/12/30 04:37:42;;;;;;;1.45;0.38;;;19.40;41.80;;;;;;5001948;28;20052;-43
2020/12/30 04:40:08;;;;;;;0.68;0.47;;;19.40;41.80;;;;;;5019586;28;20487;-45
2020/12/30 04:42:36;;;;;;;1.20;0.50;;;19.40;41.80;;;;;;5038318;28;20028;-43
2020/12/30 04:45:06;;;;;;;0.80;0.40;;;19.40;41.80;;;;;;5029687;28;20052;-43
2020/12/30 04:47:32;;;;;;;1.05;0.45;;;19.40;41.80;;;;;;5015179;28;20029;-40
2020/12/30 04:49:59;;;;;;;0.60;0.30;;;19.40;41.80;;;;;;5032922;28;20103;-43
2020/12/30 04:52:27;;;;;;;0.88;0.35;;;19.40;41.80;;;;;;5037187;28;20025;-42
2020/12/30 04:54:52;;;;;;;0.98;0.32;;;19.40;41.80;;;;;;5036068;28;20414;-43
2020/12/30 04:57:55;;;;;;;1.00;0.38;;;19.40;41.70;;;;;;5029967;28;20060;-44
2020/12/30 05:00:21;;;;;;;0.80;0.50;;;19.30;41.60;;;;;;5026454;28;20068;-45
2020/12/30 05:02:50;;;;;;;0.95;0.30;;;19.30;41.80;;;;;;5039176;28;20035;-43
2020/12/30 05:05:17;;;;;;;0.63;0.20;;;19.30;41.80;;;;;;5049307;28;20056;-42
2020/12/30 05:07:45;;;;;;;1.40;0.30;;;19.30;41.70;;;;;;5029203;28;20038;-44
2020/12/30 05:10:14;;;;;;;1.48;0.43;;;19.30;41.70;;;;;;5042978;28;20026;-41
2020/12/30 05:12:39;;;;;;;1.70;0.40;;;19.30;41.70;;;;;;5049695;28;20116;-43
2020/12/30 05:15:05;;;;;;;1.67;0.50;;;19.30;41.70;;;;;;5045350;28;20146;-39
2020/12/30 05:17:33;;;;;;;0.50;0.30;;;19.30;41.80;;;;;;5041425;28;20046;-41
2020/12/30 05:19:58;;;;;;;0.80;0.38;;;19.30;41.70;;;;;;5028343;28;20049;-42
2020/12/30 05:22:24;;;;;;;1.90;0.40;;;19.30;41.80;;;;;;5039775;28;20026;-44
2020/12/30 05:24:50;;;;;;;1.17;0.60;;;19.30;41.70;;;;;;5029836;28;20021;-45
2020/12/30 05:27:17;;;;;;;0.90;0.40;;;19.30;41.60;;;;;;5025271;28;20423;-43
2020/12/30 05:29:51;;;;;;;0.70;0.30;;;19.20;41.50;;;;;;5027559;28;20503;-42
2020/12/30 05:32:17;;;;;;;2.13;0.43;;;19.30;41.60;;;;;;5040915;28;20060;-43
2020/12/30 05:34:43;;;;;;;0.90;0.60;;;19.30;41.70;;;;;;5027672;28;20037;-44
2020/12/30 05:37:27;;;;;;;0.77;0.30;;;19.20;41.60;;;;;;5028846;28;20618;-45
2020/12/30 05:39:53;;;;;;;0.77;0.32;;;19.20;41.60;;;;;;5021472;28;20038;-43
2020/12/30 05:42:20;;;;;;;0.60;0.30;;;19.20;41.60;;;;;;5038724;28;20051;-44
2020/12/30 05:44:47;;;;;;;0.77;0.40;;;19.20;41.60;;;;;;5040655;28;20037;-43
2020/12/30 05:47:25;;;;;;;0.80;0.43;;;19.20;41.60;;;;;;5027286;28;20022;-41
2020/12/30 05:49:53;;;;;;;1.00;0.50;;;19.20;41.70;;;;;;5011361;28;20029;-46
2020/12/30 05:52:26;;;;;;;1.45;0.45;;;19.20;41.60;;;;;;5031522;28;20033;-45
2020/12/30 05:54:59;;;;;;;0.93;0.30;;;19.20;41.50;;;;;;5030441;28;20029;-42
2020/12/30 05:57:35;;;;;;;0.73;0.50;;;19.10;41.50;;;;;;5024479;28;20516;-43
2020/12/30 06:00:11;;;;;;;0.82;0.50;;;19.20;41.50;;;;;;5021398;28;20432;-44
2020/12/30 06:02:46;;;;;;;0.70;0.30;;;19.20;41.60;;;;;;5017592;28;20037;-45
2020/12/30 06:05:19;;;;;;;1.02;0.30;;;19.10;41.60;;;;;;5021833;28;20491;-42
2020/12/30 06:07:47;;;;;;;1.35;0.40;;;19.10;42.00;;;;;;5023934;28;20025;-44
2020/12/30 06:10:14;;;;;;;1.02;0.20;;;19.10;41.60;;;;;;5024530;28;20026;-44
2020/12/30 06:12:47;;;;;;;0.50;0.28;;;19.10;41.60;;;;;;5006814;28;20025;-42
2020/12/30 06:15:15;;;;;;;1.10;0.30;;;19.10;41.80;;;;;;5024940;28;20030;-45
2020/12/30 06:18:04;;;;;;;1.23;0.30;;;19.20;41.70;;;;;;5029611;28;20713;-40
2020/12/30 06:20:32;;;;;;;0.40;0.15;;;19.40;41.50;;;;;;5014171;28;20064;-39
2020/12/30 06:23:03;;;;;;;0.40;0.20;;;19.40;41.30;;;;;;5035427;28;20042;-41
2020/12/30 06:25:32;;;;;;;1.30;0.20;;;19.50;41.20;;;;;;5025624;28;20040;-45
2020/12/30 06:28:11;;;;;;;0.82;0.28;;;19.60;41.00;;;;;;5021371;28;20349;-42
2020/12/30 06:30:38;;;;;;;0.55;0.32;;;19.70;41.00;;;;;;5014074;28;20030;-41
2020/12/30 06:33:05;;;;;;;0.55;0.20;;;19.80;41.00;;;;;;4986916;28;20049;-43
2020/12/30 06:35:33;;;;;;;0.60;0.20;;;19.90;40.80;;;;;;5030228;28;20084;-44
2020/12/30 06:38:16;;;;;;;0.68;0.20;;;19.90;40.70;;;;;;5029760;28;20045;-44
2020/12/30 06:40:51;;;;;;;1.23;0.30;;;20.00;40.60;;;;;;5002469;28;20060;-44
2020/12/30 06:43:36;;;;;;;0.70;0.30;;;20.00;40.50;;;;;;5032946;28;20112;-43
2020/12/30 06:46:02;;;;;;;1.00;0.20;;;20.00;40.60;;;;;;5015037;28;20026;-43
2020/12/30 06:48:28;;;;;;;0.50;0.20;;;20.00;40.50;;;;;;5019032;28;20029;-44
2020/12/30 06:50:54;;;;;;;0.73;0.20;;;20.10;40.50;;;;;;5010254;28;20033;-40
2020/12/30 06:53:25;;;;;;;1.75;0.15;;;20.10;40.50;;;;;;5014089;28;20062;-41
2020/12/30 06:55:51;;;;;;;0.60;0.30;;;20.20;40.50;;;;;;5016912;28;20065;-44
2020/12/30 06:58:46;;;;;;;1.17;0.32;;;20.20;40.40;;;;;;5013016;28;20113;-42
2020/12/30 07:01:14;;;;;;;0.80;0.20;;;20.20;40.40;;;;;;5027289;28;20018;-45
2020/12/30 07:03:40;;;;;;;0.50;0.28;;;20.20;40.20;;;;;;5026644;28;20034;-40
2020/12/30 07:06:26;;;;;;;0.77;0.30;;;20.30;40.20;;;;;;5020295;28;20061;-46
2020/12/30 07:08:52;;;;;;;0.70;0.20;;;20.40;40.20;;;;;;5025139;28;20036;-44
2020/12/30 07:11:52;;;;;;;0.70;0.20;;;20.40;40.20;;;;;;5033989;28;20634;-41
2020/12/30 07:14:30;;;;;;;0.57;0.20;;;20.40;40.10;;;;;;5023116;28;20025;-45
2020/12/30 07:16:57;;;;;;;0.77;0.20;;;20.40;40.10;;;;;;5011835;28;20040;-43
2020/12/30 07:19:29;;;;;;;0.63;0.22;;;20.50;40.10;;;;;;5023184;28;20128;-43
2020/12/30 07:22:06;;;;;;;1.05;0.30;;;20.50;40.10;;;;;;5038778;28;20525;-38
2020/12/30 07:24:48;;;;;;;1.00;0.30;;;20.50;40.10;;;;;;5030956;28;20040;-44
2020/12/30 07:27:15;;;;;;;0.85;0.30;;;20.40;40.10;;;;;;5038891;28;20100;-44
2020/12/30 07:29:43;;;;;;;0.80;0.20;;;20.50;40.20;;;;;;5037907;28;20515;-43
2020/12/30 07:32:09;;;;;;;0.90;0.30;;;20.50;40.30;;;;;;5032795;28;20037;-43
2020/12/30 07:34:40;;;;;;;0.40;0.20;;;20.40;40.30;;;;;;5009129;28;20510;-43
2020/12/30 07:37:07;;;;;;;0.60;0.20;;;20.40;40.40;;;;;;5022034;28;20034;-41
2020/12/30 07:39:35;;;;;;;1.00;0.40;;;20.40;40.30;;;;;;5027603;28;20534;-41
2020/12/30 07:42:01;;;;;;;0.70;0.30;;;20.50;40.20;;;;;;5034859;28;20033;-43
2020/12/30 07:44:26;;;;;;;0.50;0.20;;;20.40;40.10;;;;;;5021403;28;20431;-43
2020/12/30 07:47:03;;;;;;;1.08;0.22;;;20.50;40.20;;;;;;5022965;28;20041;-43
2020/12/30 07:49:29;;;;;;;1.75;0.40;;;20.40;40.10;;;;;;5028622;28;20048;-44
2020/12/30 07:51:57;;;;;;;0.75;0.35;;;20.50;40.20;;;;;;5044630;28;20482;-42
2020/12/30 07:54:24;;;;;;;1.48;0.45;;;20.40;40.20;;;;;;5028661;28;20094;-44
2020/12/30 07:56:51;;;;;;;1.30;0.30;;;20.30;40.40;;;;;;5010729;28;20447;-43
2020/12/30 07:59:20;;;;;;;0.70;0.30;;;20.20;40.60;;;;;;5012113;28;20030;-43
2020/12/30 08:01:59;;;;;;;1.15;0.30;;;20.10;40.70;;;;;;5027590;28;20115;-44
2020/12/30 08:04:26;;;;;;;0.70;0.38;;;20.10;40.80;;;;;;5036535;28;20025;-42
2020/12/30 08:06:53;;;;;;;0.73;0.32;;;20.10;40.80;;;;;;5046436;28;20049;-39
2020/12/30 08:09:19;;;;;;;1.13;0.40;;;20.10;40.90;;;;;;5019066;28;20034;-43
2020/12/30 08:11:49;;;;;;;0.85;0.35;;;20.10;40.90;;;;;;5030364;28;20405;-42
2020/12/30 08:14:15;;;;;;;0.77;0.38;;;20.00;40.80;;;;;;5012954;28;20042;-46
2020/12/30 08:16:50;;;;;;;1.17;0.63;;;20.00;40.80;;;;;;5033449;28;20522;-43
2020/12/30 08:19:36;;;;;;;1.00;0.70;;;20.00;40.80;;;;;;5027741;28;20184;-42
2020/12/30 08:22:09;;;;;;;1.48;0.43;;;19.90;40.70;;;;;;5044826;28;20046;-43
2020/12/30 08:24:38;;;;;;;1.02;0.47;;;19.90;40.80;;;;;;5042018;28;20529;-46
2020/12/30 08:27:04;;;;;;;1.75;0.40;;;19.90;40.80;;;;;;5034243;28;20037;-44
2020/12/30 08:29:32;;;;;;;1.92;0.57;;;20.00;40.80;;;;;;5043349;28;20021;-42
2020/12/30 08:32:14;;;;;;;1.38;0.60;;;20.10;40.60;;;;;;5014723;28;20076;-44
2020/12/30 08:34:41;;;;;;;;;;;20.10;40.50;;;;;;5036211;28;20034;-42
2020/12/30 08:37:10;;;;;;;1.73;0.47;;;20.20;40.40;;;;;;5030975;28;19909;-44
2020/12/30 08:39:42;;;;;;;0.80;0.40;;;20.30;40.30;;;;;;5036527;28;20049;-44
2020/12/30 08:42:22;;;;;;;0.68;0.30;;;20.40;40.20;;;;;;5031545;28;20040;-44
2020/12/30 08:44:55;;;;;;;1.15;0.50;;;20.40;40.00;;;;;;5045846;28;20037;-42
2020/12/30 08:47:23;;;;;;;1.00;0.40;;;20.50;40.00;;;;;;5025474;28;20025;-42
2020/12/30 08:49:50;;;;;;;1.20;0.60;;;20.50;39.90;;;;;;5000923;28;20057;-42
2020/12/30 08:52:17;;;;;;;1.00;0.40;;;20.50;39.90;;;;;;5042057;28;20082;-40
2020/12/30 08:54:43;;;;;;;0.70;0.30;;;20.60;40.10;;;;;;5034795;28;20526;-47
2020/12/30 08:57:08;;;;;;;1.73;0.50;;;20.60;39.80;;;;;;5040956;28;20127;-47
2020/12/30 08:59:34;;;;;;;2.35;0.43;;;20.70;39.90;;;;;;5037836;28;20026;-46
2020/12/30 09:02:13;;;;;;;0.77;0.47;;;20.70;39.90;;;;;;5019492;28;20485;-46
2020/12/30 09:04:59;;;;;;;1.52;0.40;;;20.70;39.90;;;;;;5026171;28;20040;-45
2020/12/30 09:07:28;;;;;;;1.13;0.50;;;20.70;39.90;;;;;;5034800;28;20037;-44
2020/12/30 09:10:20;;;;;;;1.42;0.55;;;20.80;39.80;;;;;;5033505;28;20038;-46
2020/12/30 09:12:47;;;;;;;1.63;0.52;;;20.80;40.20;;;;;;5030395;28;20509;-47
2020/12/30 09:15:15;;;;;;;1.10;0.52;;;20.90;39.70;;;;;;5025569;28;20032;-46
2020/12/30 09:17:40;;;;;;;2.30;0.55;;;20.90;39.60;;;;;;5049363;22;20139;-42
2020/12/30 09:20:10;;;;;;;1.20;0.55;;;20.90;39.70;;;;;;5031012;28;20109;-45
2020/12/30 09:22:35;;;;;;;1.25;0.52;;;20.90;39.70;;;;;;5030196;28;20029;-43
2020/12/30 09:25:01;;;;;;;2.25;0.88;;;20.90;39.70;;;;;;5037399;28;20040;-46
2020/12/30 09:27:31;;;;;;;1.85;1.10;;;20.90;39.70;;;;;;5034556;28;20100;-47
2020/12/30 09:30:15;;;;;;;3.80;1.20;;;20.80;39.70;;;;;;5030968;28;20039;-43
2020/12/30 09:32:42;;;;;;;2.10;0.98;;;20.80;39.80;;;;;;5036468;28;20040;-44
2020/12/30 09:35:10;;;;;;;1.92;1.10;;;20.80;39.80;;;;;;5031344;28;20051;-45
2020/12/30 09:37:36;;;;;;;2.65;1.30;;;20.80;39.90;;;;;;5031786;28;20437;-45
2020/12/30 09:40:13;;;;;;;2.08;1.05;;;20.80;39.90;;;;;;5020718;28;20030;-46
2020/12/30 09:42:41;;;;;;;2.22;1.23;;;20.70;39.90;;;;;;5020943;28;20613;-50
2020/12/30 09:45:09;;;;;;;2.08;1.05;;;20.60;40.00;;;;;;5021356;28;20037;-51
2020/12/30 09:47:35;;;;;;;1.40;1.10;;;20.60;40.20;;;;;;5023045;28;20104;-49
2020/12/30 09:50:03;;;;;;;1.70;0.85;;;20.70;40.30;;;;;;5026046;28;20068;-49
2020/12/30 09:52:37;;;;;;;3.72;1.17;;;20.60;40.30;;;;;;5006190;28;20025;-52
2020/12/30 09:55:03;;;;;;;2.30;1.58;;;20.60;40.40;;;;;;5021581;28;20040;-51
2020/12/30 09:57:29;;;;;;;2.42;1.50;;;20.60;40.60;;;;;;5021598;28;20037;-51
2020/12/30 09:59:54;;;;;;;1.73;1.13;;;20.60;40.60;;;;;;5017763;28;20697;-50
2020/12/30 10:02:20;;;;;;;2.33;1.10;;;20.60;40.60;;;;;;5025790;28;20403;-50
2020/12/30 10:04:45;;;;;;;2.30;1.08;;;20.60;40.70;;;;;;5027291;28;20426;-51
2020/12/30 10:07:11;;;;;;;2.45;1.10;;;20.60;40.70;;;;;;5027146;28;20406;-51
2020/12/30 10:09:37;;;;;;;2.25;1.00;;;20.50;40.80;;;;;;5032417;28;20163;-50
2020/12/30 10:12:03;;;;;;;2.20;1.50;;;20.50;40.90;;;;;;5037253;28;20033;-48
2020/12/30 10:14:28;;;;;;;3.17;1.40;;;20.50;41.00;;;;;;5035381;28;20034;-49
2020/12/30 10:16:54;;;;;;;1.52;1.23;;;20.50;40.90;;;;;;5031242;28;20037;-49
2020/12/30 10:19:20;;;;;;;2.20;1.60;;;20.50;40.90;;;;;;5032768;28;20070;-50
2020/12/30 10:21:45;;;;;;;1.15;0.85;;;20.50;41.30;;;;;;5048477;28;20428;-46
2020/12/30 10:24:11;;;;;;;2.22;1.05;;;20.50;41.20;;;;;;5023851;28;20091;-47
2020/12/30 10:26:36;;;;;;;4.03;1.23;;;20.50;41.20;;;;;;5030234;28;20057;-47
2020/12/30 10:29:02;;;;;;;2.33;1.20;;;20.50;41.20;;;;;;5024379;28;20373;-48
2020/12/30 10:31:28;;;;;;;5.03;1.35;;;20.40;41.30;;;;;;5037004;28;20032;-49
2020/12/30 10:33:54;;;;;;;1.80;1.17;;;20.50;41.30;;;;;;5031427;28;20095;-48
2020/12/30 10:36:21;;;;;;;2.13;1.17;;;20.40;41.30;;;;;;5041600;28;20037;-48
2020/12/30 10:38:47;;;;;;;2.10;1.17;;;20.40;41.30;;;;;;5030932;28;20733;-47
2020/12/30 10:41:15;;;;;;;2.38;0.90;;;20.40;41.80;;;;;;5031447;28;20038;-48
2020/12/30 10:43:42;;;;;;;3.30;0.93;;;20.40;41.30;;;;;;5036214;28;20041;-45
2020/12/30 10:46:14;;;;;;;2.83;1.52;;;20.40;41.30;;;;;;5017529;28;20030;-47
2020/12/30 10:48:44;;;;;;;3.80;1.52;;;20.40;41.30;;;;;;5031761;28;20564;-46
2020/12/30 10:51:10;;;;;;;2.33;0.95;;;20.40;41.30;;;;;;5037356;28;20041;-46
2020/12/30 10:53:36;;;;;;;2.80;1.30;;;20.40;41.30;;;;;;5028685;28;20498;-50
2020/12/30 10:56:01;;;;;;;2.28;1.13;;;20.40;41.30;;;;;;5028119;28;20041;-48
2020/12/30 10:58:29;;;;;;;1.55;0.85;;;20.60;41.70;;;;;;5038860;28;20029;-46
2020/12/30 11:00:55;;;;;;;1.33;0.75;;;20.70;40.90;;;;;;5039468;28;20125;-46
2020/12/30 11:03:21;;;;;;;2.58;1.30;;;20.80;40.80;;;;;;5028148;28;20798;-47
2020/12/30 11:05:46;;;;;;;2.17;0.90;;;20.90;40.60;;;;;;5043645;28;20032;-47
2020/12/30 11:08:12;;;;;;;3.45;0.77;;;21.00;40.60;;;;;;5029553;28;20037;-46
2020/12/30 11:10:37;;;;;;;3.05;1.25;;;21.00;40.40;;;;;;5036339;28;20029;-47
2020/12/30 11:13:03;;;;;;;3.05;1.13;;;21.00;40.40;;;;;;5019458;28;20022;-48
2020/12/30 11:15:29;;;;;;;1.88;1.00;;;21.10;40.30;;;;;;5017642;28;20053;-51
2020/12/30 11:17:54;;;;;;;1.52;1.00;;;21.00;40.30;;;;;;5031575;28;20053;-49
2020/12/30 11:20:20;;;;;;;1.45;1.10;;;21.00;40.50;;;;;;5042335;28;20028;-51
2020/12/30 11:22:45;;;;;;;1.90;0.68;;;21.00;40.50;;;;;;5050445;28;20025;-48
2020/12/30 11:25:11;;;;;;;1.20;0.57;;;21.00;40.50;;;;;;5007181;28;20116;-49
2020/12/30 11:27:36;;;;;;;1.90;0.95;;;21.10;40.50;;;;;;5029367;28;20017;-49
2020/12/30 11:30:02;;;;;;;1.38;1.08;;;21.10;40.40;;;;;;5022280;28;20082;-48
2020/12/30 11:32:28;;;;;;;2.10;1.08;;;21.20;40.50;;;;;;5034198;28;20024;-49
2020/12/30 11:34:53;;;;;;;1.50;0.80;;;21.20;40.30;;;;;;5039058;28;20631;-50
2020/12/30 11:37:19;;;;;;;2.58;0.80;;;21.30;40.30;;;;;;5038917;28;20041;-49
2020/12/30 11:39:44;;;;;;;2.30;0.73;;;21.40;40.30;;;;;;5034884;28;20124;-49
2020/12/30 11:42:10;;;;;;;2.28;1.10;;;21.40;40.20;;;;;;5036855;28;20033;-51
2020/12/30 11:44:35;;;;;;;1.65;0.80;;;21.40;40.30;;;;;;5038309;28;20500;-48
2020/12/30 11:47:01;;;;;;;1.65;0.73;;;21.50;40.40;;;;;;5042832;28;20017;-46
2020/12/30 11:49:27;;;;;;;1.60;0.85;;;21.50;40.40;;;;;;5027029;28;20041;-50
2020/12/30 11:51:53;;;;;;;1.30;0.75;;;21.50;40.50;;;;;;5039343;28;20144;-46
2020/12/30 11:54:19;;;;;;;2.78;0.77;;;21.40;40.40;;;;;;5022642;28;20473;-48
2020/12/30 11:56:44;;;;;;;1.90;1.02;;;21.40;40.60;;;;;;5026294;28;20017;-48
2020/12/30 11:59:10;;;;;;;1.58;1.23;;;21.40;40.70;;;;;;5029285;28;20032;-47
2020/12/30 12:01:35;;;;;;;1.80;0.95;;;21.40;40.80;;;;;;5035748;28;20136;-47
2020/12/30 12:04:02;;;;;;;1.55;0.88;;;21.30;41.00;;;;;;5040940;28;20025;-47
2020/12/30 12:06:28;;;;;;;2.13;0.70;;;21.30;41.10;;;;;;5048306;28;20501;-45
2020/12/30 12:08:54;;;;;;;2.35;0.93;;;21.30;41.10;;;;;;5026266;28;20037;-48
2020/12/30 12:11:20;;;;;;;1.45;0.82;;;21.20;41.20;;;;;;5032417;28;20041;-49
2020/12/30 12:13:46;;;;;;;1.58;1.02;;;21.20;41.20;;;;;;5042982;28;20064;-48
2020/12/30 12:16:12;;;;;;;1.83;1.02;;;21.20;41.30;;;;;;5034432;28;20398;-44
2020/12/30 12:18:38;;;;;;;1.52;0.93;;;21.20;41.30;;;;;;5022221;28;20437;-48
2020/12/30 12:21:04;;;;;;;1.60;1.00;;;21.10;41.40;;;;;;5023807;28;20265;-50
2020/12/30 12:23:30;;;;;;;1.95;1.00;;;21.10;41.40;;;;;;5045840;28;20036;-47
2020/12/30 12:25:56;;;;;;;2.17;0.95;;;21.10;41.40;;;;;;5038677;28;20059;-48
2020/12/30 12:28:57;;;;;;;2.45;0.93;;;21.10;41.60;;;;;;5035398;28;20082;-50
2020/12/30 12:31:23;;;;;;;1.45;0.82;;;21.10;42.10;;;;;;5023836;28;20459;-48
2020/12/30 12:33:48;;;;;;;1.38;0.82;;;21.00;41.60;;;;;;5046482;28;20029;-44
2020/12/30 12:36:15;;;;;;;2.30;0.88;;;21.00;41.60;;;;;;5036855;28;20368;-46
2020/12/30 12:38:41;;;;;;;2.42;0.80;;;21.00;41.60;;;;;;5047086;28;20032;-45
2020/12/30 12:41:07;;;;;;;1.75;0.85;;;21.00;41.70;;;;;;5015737;28;20402;-52
2020/12/30 12:43:33;;;;;;;2.35;1.50;;;21.00;41.60;;;;;;5046352;28;20032;-52
2020/12/30 12:45:58;;;;;;;1.98;1.10;;;20.90;41.60;;;;;;5040943;28;20026;-51
2020/12/30 12:48:24;;;;;;;1.98;0.90;;;20.90;41.60;;;;;;5042890;28;20025;-51
2020/12/30 12:50:49;;;;;;;2.03;1.20;;;20.90;41.80;;;;;;5031707;28;20087;-50
2020/12/30 12:53:16;;;;;;;2.10;1.13;;;20.80;41.80;;;;;;5031293;28;20026;-46